sensor_id;sensor_type;location;lat;lon;timestamp;pressure;altitude;pressure_sealevel;temperature;humidity
51083;BME280;37131;42.694;23.350;2023-04-25T00:00:23;94756.13;;;9.72;100.00
51083;BME280;37131;42.694;23.350;2023-04-25T00:02:48;94738.25;;;9.76;100.00
51083;BME280;37131;42.694;23.350;2023-04-25T00:05:13;94737.22;;;9.77;100.00
51083;BME280;37131;42.694;23.350;2023-04-25T00:07:41;94739.50;;;9.73;100.00
51083;BME280;37131;42.694;23.350;2023-04-25T00:10:08;94728.84;;;9.75;100.00
51083;BME280;37131;42.694;23.350;2023-04-25T00:12:33;94712.31;;;9.81;100.00
51083;BME280;37131;42.694;23.350;2023-04-25T00:14:58;94708.69;;;9.82;100.00
51083;BME280;37131;42.694;23.350;2023-04-25T00:17:24;94704.41;;;9.76;100.00
51083;BME280;37131;42.694;23.350;2023-04-25T00:19:50;94698.16;;;9.77;100.00
51083;BME280;37131;42.694;23.350;2023-04-25T00:22:16;94690.72;;;9.97;100.00
51083;BME280;37131;42.694;23.350;2023-04-25T00:24:41;94693.47;;;9.91;100.00
51083;BME280;37131;42.694;23.350;2023-04-25T00:27:06;94687.28;;;10.09;100.00
51083;BME280;37131;42.694;23.350;2023-04-25T00:29:31;94695.94;;;9.97;100.00
51083;BME280;37131;42.694;23.350;2023-04-25T00:31:57;94691.19;;;9.94;100.00
51083;BME280;37131;42.694;23.350;2023-04-25T00:34:22;94685.19;;;9.94;100.00
51083;BME280;37131;42.694;23.350;2023-04-25T00:36:47;94682.50;;;9.89;100.00
51083;BME280;37131;42.694;23.350;2023-04-25T00:39:12;94687.66;;;10.00;100.00
51083;BME280;37131;42.694;23.350;2023-04-25T00:41:38;94693.56;;;9.96;100.00
51083;BME280;37131;42.694;23.350;2023-04-25T00:44:04;94682.13;;;9.97;100.00
51083;BME280;37131;42.694;23.350;2023-04-25T00:46:30;94684.31;;;9.88;100.00
51083;BME280;37131;42.694;23.350;2023-04-25T00:48:56;94684.44;;;9.81;100.00
51083;BME280;37131;42.694;23.350;2023-04-25T00:51:21;94680.56;;;9.67;100.00
51083;BME280;37131;42.694;23.350;2023-04-25T00:53:47;94671.00;;;9.73;100.00
51083;BME280;37131;42.694;23.350;2023-04-25T00:56:13;94681.53;;;9.78;100.00
51083;BME280;37131;42.694;23.350;2023-04-25T00:58:39;94693.78;;;9.94;100.00
51083;BME280;37131;42.694;23.350;2023-04-25T01:01:05;94695.44;;;9.83;100.00
51083;BME280;37131;42.694;23.350;2023-04-25T01:03:32;94697.84;;;9.73;100.00
51083;BME280;37131;42.694;23.350;2023-04-25T01:05:57;94697.72;;;9.68;100.00
51083;BME280;37131;42.694;23.350;2023-04-25T01:08:23;94697.25;;;9.71;100.00
51083;BME280;37131;42.694;23.350;2023-04-25T01:10:49;94670.31;;;9.48;100.00
51083;BME280;37131;42.694;23.350;2023-04-25T01:13:14;94668.19;;;9.34;100.00
51083;BME280;37131;42.694;23.350;2023-04-25T01:15:40;94671.69;;;9.39;100.00
51083;BME280;37131;42.694;23.350;2023-04-25T01:18:05;94665.06;;;9.60;100.00
51083;BME280;37131;42.694;23.350;2023-04-25T01:20:32;94662.66;;;9.30;100.00
51083;BME280;37131;42.694;23.350;2023-04-25T01:22:57;94651.88;;;9.38;100.00
51083;BME280;37131;42.694;23.350;2023-04-25T01:25:23;94648.78;;;9.24;100.00
51083;BME280;37131;42.694;23.350;2023-04-25T01:27:48;94649.91;;;9.17;100.00
51083;BME280;37131;42.694;23.350;2023-04-25T01:30:14;94653.09;;;9.07;100.00
51083;BME280;37131;42.694;23.350;2023-04-25T01:32:39;94657.84;;;9.10;100.00
51083;BME280;37131;42.694;23.350;2023-04-25T01:35:06;94648.91;;;9.06;100.00
51083;BME280;37131;42.694;23.350;2023-04-25T01:37:35;94645.38;;;9.12;100.00
51083;BME280;37131;42.694;23.350;2023-04-25T01:40:00;94648.91;;;9.06;100.00
51083;BME280;37131;42.694;23.350;2023-04-25T01:42:26;94660.00;;;9.01;100.00
51083;BME280;37131;42.694;23.350;2023-04-25T01:44:51;94657.97;;;8.91;100.00
51083;BME280;37131;42.694;23.350;2023-04-25T01:47:16;94656.63;;;8.89;100.00
51083;BME280;37131;42.694;23.350;2023-04-25T01:49:41;94656.63;;;8.89;100.00
51083;BME280;37131;42.694;23.350;2023-04-25T01:52:07;94662.16;;;8.92;100.00
51083;BME280;37131;42.694;23.350;2023-04-25T01:54:32;94666.81;;;8.90;100.00
51083;BME280;37131;42.694;23.350;2023-04-25T01:56:57;94675.28;;;8.98;100.00
51083;BME280;37131;42.694;23.350;2023-04-25T01:59:23;94667.56;;;9.03;100.00
51083;BME280;37131;42.694;23.350;2023-04-25T02:01:48;94661.59;;;9.02;100.00
51083;BME280;37131;42.694;23.350;2023-04-25T02:04:13;94661.34;;;9.04;100.00
51083;BME280;37131;42.694;23.350;2023-04-25T02:06:39;94665.22;;;8.89;100.00
51083;BME280;37131;42.694;23.350;2023-04-25T02:09:04;94661.91;;;8.94;100.00
51083;BME280;37131;42.694;23.350;2023-04-25T02:11:29;94659.47;;;8.87;100.00
51083;BME280;37131;42.694;23.350;2023-04-25T02:13:55;94653.44;;;8.87;100.00
51083;BME280;37131;42.694;23.350;2023-04-25T02:16:20;94651.75;;;8.81;100.00
51083;BME280;37131;42.694;23.350;2023-04-25T02:18:45;94651.31;;;8.84;100.00
51083;BME280;37131;42.694;23.350;2023-04-25T02:21:10;94642.59;;;8.78;100.00
51083;BME280;37131;42.694;23.350;2023-04-25T02:23:36;94632.88;;;8.73;100.00
51083;BME280;37131;42.694;23.350;2023-04-25T02:26:02;94628.94;;;8.71;100.00
51083;BME280;37131;42.694;23.350;2023-04-25T02:28:27;94626.78;;;8.68;100.00
51083;BME280;37131;42.694;23.350;2023-04-25T02:30:52;94629.84;;;8.65;100.00
51083;BME280;37131;42.694;23.350;2023-04-25T02:33:17;94622.72;;;8.60;100.00
51083;BME280;37131;42.694;23.350;2023-04-25T02:35:43;94617.88;;;8.64;100.00
51083;BME280;37131;42.694;23.350;2023-04-25T02:38:08;94612.56;;;8.58;100.00
51083;BME280;37131;42.694;23.350;2023-04-25T02:40:33;94617.84;;;8.52;100.00
51083;BME280;37131;42.694;23.350;2023-04-25T02:42:59;94616.16;;;8.57;100.00
51083;BME280;37131;42.694;23.350;2023-04-25T02:45:24;94612.88;;;8.50;100.00
51083;BME280;37131;42.694;23.350;2023-04-25T02:47:49;94618.53;;;8.47;100.00
51083;BME280;37131;42.694;23.350;2023-04-25T02:50:14;94611.19;;;8.44;100.00
51083;BME280;37131;42.694;23.350;2023-04-25T02:52:40;94600.81;;;8.44;100.00
51083;BME280;37131;42.694;23.350;2023-04-25T02:55:05;94608.59;;;8.44;100.00
51083;BME280;37131;42.694;23.350;2023-04-25T02:57:31;94609.03;;;8.41;100.00
51083;BME280;37131;42.694;23.350;2023-04-25T02:59:56;94610.84;;;8.40;100.00
51083;BME280;37131;42.694;23.350;2023-04-25T03:02:21;94607.88;;;8.37;100.00
51083;BME280;37131;42.694;23.350;2023-04-25T03:04:46;94605.97;;;8.32;100.00
51083;BME280;37131;42.694;23.350;2023-04-25T03:07:12;94617.03;;;8.28;100.00
51083;BME280;37131;42.694;23.350;2023-04-25T03:09:38;94607.09;;;8.24;100.00
51083;BME280;37131;42.694;23.350;2023-04-25T03:12:03;94604.72;;;8.23;100.00
51083;BME280;37131;42.694;23.350;2023-04-25T03:14:28;94598.63;;;8.17;100.00
51083;BME280;37131;42.694;23.350;2023-04-25T03:16:54;94599.53;;;8.11;100.00
51083;BME280;37131;42.694;23.350;2023-04-25T03:19:19;94610.47;;;8.13;100.00
51083;BME280;37131;42.694;23.350;2023-04-25T03:21:45;94606.19;;;8.31;100.00
51083;BME280;37131;42.694;23.350;2023-04-25T03:24:10;94606.09;;;8.25;100.00
51083;BME280;37131;42.694;23.350;2023-04-25T03:26:38;94601.34;;;8.22;100.00
51083;BME280;37131;42.694;23.350;2023-04-25T03:29:03;94600.66;;;8.15;100.00
51083;BME280;37131;42.694;23.350;2023-04-25T03:31:29;94606.56;;;8.22;100.00
51083;BME280;37131;42.694;23.350;2023-04-25T03:33:54;94599.75;;;8.21;100.00
51083;BME280;37131;42.694;23.350;2023-04-25T03:36:19;94597.41;;;8.32;100.00
51083;BME280;37131;42.694;23.350;2023-04-25T03:38:45;94595.47;;;8.39;100.00
51083;BME280;37131;42.694;23.350;2023-04-25T03:41:10;94599.56;;;8.47;100.00
51083;BME280;37131;42.694;23.350;2023-04-25T03:43:35;94599.25;;;8.55;100.00
51083;BME280;37131;42.694;23.350;2023-04-25T03:46:00;94606.34;;;8.48;100.00
51083;BME280;37131;42.694;23.350;2023-04-25T03:48:26;94601.91;;;8.36;100.00
51083;BME280;37131;42.694;23.350;2023-04-25T03:50:52;94601.69;;;8.38;100.00
51083;BME280;37131;42.694;23.350;2023-04-25T03:53:17;94599.25;;;8.55;100.00
51083;BME280;37131;42.694;23.350;2023-04-25T03:55:42;94597.06;;;8.52;100.00
51083;BME280;37131;42.694;23.350;2023-04-25T03:58:08;94587.81;;;8.56;100.00
51083;BME280;37131;42.694;23.350;2023-04-25T04:00:34;94592.09;;;8.50;100.00
51083;BME280;37131;42.694;23.350;2023-04-25T04:02:59;94601.25;;;8.65;100.00
51083;BME280;37131;42.694;23.350;2023-04-25T04:05:24;94603.53;;;8.73;100.00
51083;BME280;37131;42.694;23.350;2023-04-25T04:07:50;94612.53;;;8.82;100.00
51083;BME280;37131;42.694;23.350;2023-04-25T04:10:15;94606.44;;;8.65;100.00
51083;BME280;37131;42.694;23.350;2023-04-25T04:12:40;94615.84;;;8.66;100.00
51083;BME280;37131;42.694;23.350;2023-04-25T04:15:06;94612.19;;;8.90;100.00
51083;BME280;37131;42.694;23.350;2023-04-25T04:17:31;94607.56;;;8.92;100.00
51083;BME280;37131;42.694;23.350;2023-04-25T04:19:57;94604.69;;;9.06;100.00
51083;BME280;37131;42.694;23.350;2023-04-25T04:22:22;94608.28;;;9.17;100.00
51083;BME280;37131;42.694;23.350;2023-04-25T04:24:48;94604.66;;;9.18;100.00
51083;BME280;37131;42.694;23.350;2023-04-25T04:27:14;94608.81;;;9.30;100.00
51083;BME280;37131;42.694;23.350;2023-04-25T04:29:40;94602.75;;;9.13;100.00
51083;BME280;37131;42.694;23.350;2023-04-25T04:32:05;94603.28;;;9.27;100.00
51083;BME280;37131;42.694;23.350;2023-04-25T04:34:30;94597.56;;;9.42;100.00
51083;BME280;37131;42.694;23.350;2023-04-25T04:36:56;94603.69;;;9.36;100.00
51083;BME280;37131;42.694;23.350;2023-04-25T04:39:21;94596.09;;;9.17;100.00
51083;BME280;37131;42.694;23.350;2023-04-25T04:41:47;94603.19;;;9.22;100.00
51083;BME280;37131;42.694;23.350;2023-04-25T04:44:12;94591.47;;;9.48;100.00
51083;BME280;37131;42.694;23.350;2023-04-25T04:46:39;94597.38;;;9.43;100.00
51083;BME280;37131;42.694;23.350;2023-04-25T04:49:07;94595.13;;;9.35;100.00
51083;BME280;37131;42.694;23.350;2023-04-25T04:51:32;94607.88;;;9.37;100.00
51083;BME280;37131;42.694;23.350;2023-04-25T04:53:58;94620.00;;;9.31;100.00
51083;BME280;37131;42.694;23.350;2023-04-25T04:56:27;94622.03;;;9.41;100.00
51083;BME280;37131;42.694;23.350;2023-04-25T04:58:53;94614.56;;;9.33;100.00
51083;BME280;37131;42.694;23.350;2023-04-25T05:01:18;94609.97;;;9.52;100.00
51083;BME280;37131;42.694;23.350;2023-04-25T05:03:43;94613.94;;;9.54;100.00
51083;BME280;37131;42.694;23.350;2023-04-25T05:06:09;94621.94;;;9.64;100.00
51083;BME280;37131;42.694;23.350;2023-04-25T05:08:34;94615.72;;;9.65;100.00
51083;BME280;37131;42.694;23.350;2023-04-25T05:10:59;94624.63;;;9.70;100.00
51083;BME280;37131;42.694;23.350;2023-04-25T05:13:24;94642.00;;;9.81;100.00
51083;BME280;37131;42.694;23.350;2023-04-25T05:15:50;94632.44;;;9.70;100.00
51083;BME280;37131;42.694;23.350;2023-04-25T05:18:17;94625.72;;;9.74;100.00
51083;BME280;37131;42.694;23.350;2023-04-25T05:20:42;94626.84;;;9.78;100.00
51083;BME280;37131;42.694;23.350;2023-04-25T05:23:07;94630.09;;;9.85;100.00
51083;BME280;37131;42.694;23.350;2023-04-25T05:25:33;94626.63;;;9.79;100.00
51083;BME280;37131;42.694;23.350;2023-04-25T05:27:58;94624.19;;;9.90;100.00
51083;BME280;37131;42.694;23.350;2023-04-25T05:30:23;94628.50;;;9.84;100.00
51083;BME280;37131;42.694;23.350;2023-04-25T05:32:48;94628.56;;;9.72;100.00
51083;BME280;37131;42.694;23.350;2023-04-25T05:35:14;94630.00;;;9.80;100.00
51083;BME280;37131;42.694;23.350;2023-04-25T05:37:39;94624.66;;;9.87;100.00
51083;BME280;37131;42.694;23.350;2023-04-25T05:40:05;94632.88;;;9.95;100.00
51083;BME280;37131;42.694;23.350;2023-04-25T05:42:31;94615.78;;;9.99;100.00
51083;BME280;37131;42.694;23.350;2023-04-25T05:44:57;94615.06;;;10.04;100.00
51083;BME280;37131;42.694;23.350;2023-04-25T05:47:22;94626.31;;;9.93;100.00
51083;BME280;37131;42.694;23.350;2023-04-25T05:49:47;94624.38;;;10.00;100.00
51083;BME280;37131;42.694;23.350;2023-04-25T05:52:13;94620.66;;;9.96;100.00
51083;BME280;37131;42.694;23.350;2023-04-25T05:54:38;94631.09;;;10.13;100.00
51083;BME280;37131;42.694;23.350;2023-04-25T05:57:03;94629.25;;;10.13;100.00
51083;BME280;37131;42.694;23.350;2023-04-25T05:59:28;94630.81;;;9.97;100.00
51083;BME280;37131;42.694;23.350;2023-04-25T06:01:54;94626.97;;;10.17;100.00
51083;BME280;37131;42.694;23.350;2023-04-25T06:04:19;94625.66;;;10.14;100.00
51083;BME280;37131;42.694;23.350;2023-04-25T06:06:45;94628.25;;;10.14;100.00
51083;BME280;37131;42.694;23.350;2023-04-25T06:09:10;94624.66;;;10.04;100.00
51083;BME280;37131;42.694;23.350;2023-04-25T06:11:35;94628.16;;;10.09;100.00
51083;BME280;37131;42.694;23.350;2023-04-25T06:14:01;94624.75;;;10.26;100.00
51083;BME280;37131;42.694;23.350;2023-04-25T06:16:26;94588.13;;;9.98;100.00
51083;BME280;37131;42.694;23.350;2023-04-25T06:18:51;94628.09;;;10.55;100.00
51083;BME280;37131;42.694;23.350;2023-04-25T06:21:16;94624.63;;;10.49;100.00
51083;BME280;37131;42.694;23.350;2023-04-25T06:23:42;94624.88;;;10.48;100.00
51083;BME280;37131;42.694;23.350;2023-04-25T06:26:07;94631.50;;;10.39;100.00
51083;BME280;37131;42.694;23.350;2023-04-25T06:28:32;94642.13;;;10.20;100.00
51083;BME280;37131;42.694;23.350;2023-04-25T06:30:57;94639.50;;;10.20;100.00
51083;BME280;37131;42.694;23.350;2023-04-25T06:33:23;94639.69;;;10.30;100.00
51083;BME280;37131;42.694;23.350;2023-04-25T06:35:49;94638.56;;;10.38;100.00
51083;BME280;37131;42.694;23.350;2023-04-25T06:38:15;94634.06;;;10.33;100.00
51083;BME280;37131;42.694;23.350;2023-04-25T06:40:40;94633.22;;;10.33;100.00
51083;BME280;37131;42.694;23.350;2023-04-25T06:43:05;94627.53;;;10.70;100.00
51083;BME280;37131;42.694;23.350;2023-04-25T06:45:31;94637.25;;;10.97;100.00
51083;BME280;37131;42.694;23.350;2023-04-25T06:47:56;94640.94;;;10.96;100.00
51083;BME280;37131;42.694;23.350;2023-04-25T06:50:21;94639.13;;;11.18;100.00
51083;BME280;37131;42.694;23.350;2023-04-25T06:52:46;94640.81;;;11.08;100.00
51083;BME280;37131;42.694;23.350;2023-04-25T06:55:12;94639.75;;;11.09;100.00
51083;BME280;37131;42.694;23.350;2023-04-25T06:57:37;94634.75;;;11.24;100.00
51083;BME280;37131;42.694;23.350;2023-04-25T07:00:03;94641.47;;;11.42;100.00
51083;BME280;37131;42.694;23.350;2023-04-25T07:02:30;94634.75;;;11.46;100.00
51083;BME280;37131;42.694;23.350;2023-04-25T07:04:55;94633.69;;;11.69;100.00
51083;BME280;37131;42.694;23.350;2023-04-25T07:07:24;94630.19;;;11.86;100.00
51083;BME280;37131;42.694;23.350;2023-04-25T07:09:50;94631.47;;;11.83;100.00
51083;BME280;37131;42.694;23.350;2023-04-25T07:12:15;94636.84;;;11.71;100.00
51083;BME280;37131;42.694;23.350;2023-04-25T07:14:40;94635.31;;;11.75;100.00
51083;BME280;37131;42.694;23.350;2023-04-25T07:17:06;94632.38;;;11.45;100.00
51083;BME280;37131;42.694;23.350;2023-04-25T07:19:31;94637.97;;;11.53;100.00
51083;BME280;37131;42.694;23.350;2023-04-25T07:21:58;94635.63;;;11.57;100.00
51083;BME280;37131;42.694;23.350;2023-04-25T07:24:23;94634.47;;;11.70;100.00
51083;BME280;37131;42.694;23.350;2023-04-25T07:26:48;94633.09;;;11.62;100.00
51083;BME280;37131;42.694;23.350;2023-04-25T07:29:13;94633.63;;;11.64;100.00
51083;BME280;37131;42.694;23.350;2023-04-25T07:31:39;94624.66;;;11.82;100.00
51083;BME280;37131;42.694;23.350;2023-04-25T07:34:04;94627.59;;;11.86;100.00
51083;BME280;37131;42.694;23.350;2023-04-25T07:36:30;94631.34;;;11.95;100.00
51083;BME280;37131;42.694;23.350;2023-04-25T07:38:56;94630.22;;;11.91;100.00
51083;BME280;37131;42.694;23.350;2023-04-25T07:41:21;94629.84;;;11.77;100.00
51083;BME280;37131;42.694;23.350;2023-04-25T07:43:46;94624.72;;;11.87;100.00
51083;BME280;37131;42.694;23.350;2023-04-25T07:46:11;94618.41;;;12.10;100.00
51083;BME280;37131;42.694;23.350;2023-04-25T07:48:37;94617.69;;;12.53;100.00
51083;BME280;37131;42.694;23.350;2023-04-25T07:51:02;94617.56;;;12.70;100.00
51083;BME280;37131;42.694;23.350;2023-04-25T07:53:29;94618.91;;;12.82;98.19
51083;BME280;37131;42.694;23.350;2023-04-25T07:55:55;94611.72;;;13.05;97.60
51083;BME280;37131;42.694;23.350;2023-04-25T07:58:21;94614.00;;;12.91;97.17
51083;BME280;37131;42.694;23.350;2023-04-25T08:00:47;94615.84;;;12.91;95.66
51083;BME280;37131;42.694;23.350;2023-04-25T08:03:12;94609.56;;;12.92;97.21
51083;BME280;37131;42.694;23.350;2023-04-25T08:05:37;94606.25;;;13.12;92.90
51083;BME280;37131;42.694;23.350;2023-04-25T08:08:03;94608.59;;;13.13;92.46
51083;BME280;37131;42.694;23.350;2023-04-25T08:10:29;94606.84;;;13.29;94.46
51083;BME280;37131;42.694;23.350;2023-04-25T08:12:54;94611.88;;;13.41;89.09
51083;BME280;37131;42.694;23.350;2023-04-25T08:15:20;94606.69;;;13.57;90.69
51083;BME280;37131;42.694;23.350;2023-04-25T08:17:45;94609.19;;;13.26;89.55
51083;BME280;37131;42.694;23.350;2023-04-25T08:20:10;94597.78;;;13.53;88.84
51083;BME280;37131;42.694;23.350;2023-04-25T08:22:36;94595.44;;;13.51;86.16
51083;BME280;37131;42.694;23.350;2023-04-25T08:25:01;94585.53;;;13.84;86.42
51083;BME280;37131;42.694;23.350;2023-04-25T08:27:26;94585.81;;;14.24;82.54
51083;BME280;37131;42.694;23.350;2023-04-25T08:29:51;94586.06;;;14.32;80.48
51083;BME280;37131;42.694;23.350;2023-04-25T08:32:18;94582.63;;;14.57;83.76
51083;BME280;37131;42.694;23.350;2023-04-25T08:34:43;94576.63;;;14.11;82.59
51083;BME280;37131;42.694;23.350;2023-04-25T08:37:09;94572.94;;;14.27;82.38
51083;BME280;37131;42.694;23.350;2023-04-25T08:39:35;94586.88;;;14.28;83.59
51083;BME280;37131;42.694;23.350;2023-04-25T08:42:00;94593.94;;;13.91;85.28
51083;BME280;37131;42.694;23.350;2023-04-25T08:44:28;94607.22;;;13.59;88.77
51083;BME280;37131;42.694;23.350;2023-04-25T08:46:55;94619.81;;;13.62;93.94
51083;BME280;37131;42.694;23.350;2023-04-25T08:49:20;94614.81;;;13.60;96.32
51083;BME280;37131;42.694;23.350;2023-04-25T08:51:46;94609.53;;;13.35;100.00
51083;BME280;37131;42.694;23.350;2023-04-25T08:54:12;94612.84;;;13.30;100.00
51083;BME280;37131;42.694;23.350;2023-04-25T08:56:41;94604.19;;;13.19;100.00
51083;BME280;37131;42.694;23.350;2023-04-25T08:59:09;94597.69;;;13.32;100.00
51083;BME280;37131;42.694;23.350;2023-04-25T09:01:34;94602.81;;;13.01;100.00
51083;BME280;37131;42.694;23.350;2023-04-25T09:04:00;94590.03;;;13.15;100.00
51083;BME280;37131;42.694;23.350;2023-04-25T09:06:26;94590.94;;;12.83;100.00
51083;BME280;37131;42.694;23.350;2023-04-25T09:08:52;94590.88;;;12.73;99.65
51083;BME280;37131;42.694;23.350;2023-04-25T09:11:18;94581.25;;;12.84;100.00
51083;BME280;37131;42.694;23.350;2023-04-25T09:13:44;94579.81;;;13.08;100.00
51083;BME280;37131;42.694;23.350;2023-04-25T09:16:10;94575.50;;;13.35;99.87
51083;BME280;37131;42.694;23.350;2023-04-25T09:18:35;94572.34;;;13.38;95.88
51083;BME280;37131;42.694;23.350;2023-04-25T09:21:05;94556.91;;;13.51;95.95
51083;BME280;37131;42.694;23.350;2023-04-25T09:23:31;94564.53;;;13.58;95.34
51083;BME280;37131;42.694;23.350;2023-04-25T09:26:03;94566.13;;;13.90;89.88
51083;BME280;37131;42.694;23.350;2023-04-25T09:28:28;94567.72;;;13.91;81.60
51083;BME280;37131;42.694;23.350;2023-04-25T09:30:57;94565.34;;;13.74;79.36
51083;BME280;37131;42.694;23.350;2023-04-25T09:33:26;94528.03;;;13.26;84.25
51083;BME280;37131;42.694;23.350;2023-04-25T09:35:52;94561.19;;;13.94;87.71
51083;BME280;37131;42.694;23.350;2023-04-25T09:38:20;94557.50;;;13.95;86.91
51083;BME280;37131;42.694;23.350;2023-04-25T09:40:47;94553.56;;;14.18;86.08
51083;BME280;37131;42.694;23.350;2023-04-25T09:43:24;94553.75;;;14.78;85.01
51083;BME280;37131;42.694;23.350;2023-04-25T09:45:51;94550.13;;;15.29;79.57
51083;BME280;37131;42.694;23.350;2023-04-25T09:48:18;94535.13;;;15.35;77.81
51083;BME280;37131;42.694;23.350;2023-04-25T09:50:45;94545.03;;;15.53;77.40
51083;BME280;37131;42.694;23.350;2023-04-25T09:53:10;94561.56;;;15.59;73.89
51083;BME280;37131;42.694;23.350;2023-04-25T09:55:35;94557.91;;;15.50;73.84
51083;BME280;37131;42.694;23.350;2023-04-25T09:58:03;94561.28;;;15.60;73.09
51083;BME280;37131;42.694;23.350;2023-04-25T10:00:29;94551.47;;;15.71;71.81
51083;BME280;37131;42.694;23.350;2023-04-25T10:02:55;94569.94;;;15.61;72.76
51083;BME280;37131;42.694;23.350;2023-04-25T10:05:22;94570.41;;;15.18;75.16
51083;BME280;37131;42.694;23.350;2023-04-25T10:07:49;94553.13;;;15.07;76.71
51083;BME280;37131;42.694;23.350;2023-04-25T10:10:15;94556.28;;;15.09;78.09
51083;BME280;37131;42.694;23.350;2023-04-25T10:12:41;94553.66;;;15.09;79.25
51083;BME280;37131;42.694;23.350;2023-04-25T10:15:08;94549.56;;;15.37;79.64
51083;BME280;37131;42.694;23.350;2023-04-25T10:17:34;94545.28;;;15.02;75.84
51083;BME280;37131;42.694;23.350;2023-04-25T10:20:03;94549.63;;;15.22;78.67
51083;BME280;37131;42.694;23.350;2023-04-25T10:22:34;94556.69;;;15.37;78.67
51083;BME280;37131;42.694;23.350;2023-04-25T10:25:01;94558.06;;;15.69;75.30
51083;BME280;37131;42.694;23.350;2023-04-25T10:27:28;94550.94;;;15.74;70.84
51083;BME280;37131;42.694;23.350;2023-04-25T10:30:04;94541.78;;;15.67;79.05
51083;BME280;37131;42.694;23.350;2023-04-25T10:32:31;94545.63;;;16.19;75.46
51083;BME280;37131;42.694;23.350;2023-04-25T10:34:58;94543.34;;;16.37;73.67
51083;BME280;37131;42.694;23.350;2023-04-25T10:37:34;94557.72;;;16.74;68.59
51083;BME280;37131;42.694;23.350;2023-04-25T10:40:02;94578.41;;;16.61;64.52
51083;BME280;37131;42.694;23.350;2023-04-25T10:42:33;94571.00;;;16.05;68.44
51083;BME280;37131;42.694;23.350;2023-04-25T10:45:01;94566.72;;;16.09;65.44
51083;BME280;37131;42.694;23.350;2023-04-25T10:47:43;94566.16;;;16.17;69.69
51083;BME280;37131;42.694;23.350;2023-04-25T10:50:14;94557.47;;;15.82;66.72
51083;BME280;37131;42.694;23.350;2023-04-25T10:52:40;94552.66;;;15.94;68.12
51083;BME280;37131;42.694;23.350;2023-04-25T10:55:06;94546.41;;;16.20;72.19
51083;BME280;37131;42.694;23.350;2023-04-25T11:00:19;94473.69;;;15.36;67.28
51083;BME280;37131;42.694;23.350;2023-04-25T11:02:51;94544.84;;;16.19;67.99
51083;BME280;37131;42.694;23.350;2023-04-25T11:05:23;94545.03;;;16.57;71.93
51083;BME280;37131;42.694;23.350;2023-04-25T11:07:54;94495.06;;;16.27;71.34
51083;BME280;37131;42.694;23.350;2023-04-25T11:10:28;94532.25;;;16.45;63.64
51083;BME280;37131;42.694;23.350;2023-04-25T11:12:54;94531.41;;;16.20;63.58
51083;BME280;37131;42.694;23.350;2023-04-25T11:15:20;94433.31;;;15.56;66.61
51083;BME280;37131;42.694;23.350;2023-04-25T11:17:46;94528.16;;;16.82;64.43
51083;BME280;37131;42.694;23.350;2023-04-25T11:20:12;94514.41;;;16.90;63.58
51083;BME280;37131;42.694;23.350;2023-04-25T11:22:39;94508.56;;;16.69;57.77
51083;BME280;37131;42.694;23.350;2023-04-25T11:25:09;94526.34;;;16.53;56.82
51083;BME280;37131;42.694;23.350;2023-04-25T11:27:49;94497.09;;;16.06;58.71
51083;BME280;37131;42.694;23.350;2023-04-25T11:30:16;94526.72;;;16.17;55.82
51083;BME280;37131;42.694;23.350;2023-04-25T11:32:41;94525.94;;;16.17;57.13
51083;BME280;37131;42.694;23.350;2023-04-25T11:35:09;94486.88;;;16.00;57.22
51083;BME280;37131;42.694;23.350;2023-04-25T11:37:34;94502.78;;;16.13;57.72
51083;BME280;37131;42.694;23.350;2023-04-25T11:40:00;94532.19;;;16.21;56.88
51083;BME280;37131;42.694;23.350;2023-04-25T11:42:26;94539.78;;;16.27;55.59
51083;BME280;37131;42.694;23.350;2023-04-25T11:44:51;94483.16;;;16.06;55.33
51083;BME280;37131;42.694;23.350;2023-04-25T11:47:17;94506.31;;;16.04;60.50
51083;BME280;37131;42.694;23.350;2023-04-25T11:49:42;94516.25;;;15.72;61.98
51083;BME280;37131;42.694;23.350;2023-04-25T11:52:08;94549.06;;;15.75;62.61
51083;BME280;37131;42.694;23.350;2023-04-25T11:54:37;94493.50;;;15.18;59.41
51083;BME280;37131;42.694;23.350;2023-04-25T11:57:03;94520.97;;;15.31;62.85
51083;BME280;37131;42.694;23.350;2023-04-25T11:59:29;94525.88;;;15.48;63.31
51083;BME280;37131;42.694;23.350;2023-04-25T12:01:54;94520.44;;;15.78;67.66
51083;BME280;37131;42.694;23.350;2023-04-25T12:04:22;94515.63;;;16.20;67.48
51083;BME280;37131;42.694;23.350;2023-04-25T12:06:49;94464.16;;;16.38;65.85
51083;BME280;37131;42.694;23.350;2023-04-25T12:09:30;94507.06;;;17.30;58.84
51083;BME280;37131;42.694;23.350;2023-04-25T12:11:57;94501.84;;;18.15;53.81
51083;BME280;37131;42.694;23.350;2023-04-25T12:14:31;94494.13;;;18.05;53.18
51083;BME280;37131;42.694;23.350;2023-04-25T12:17:04;94512.13;;;17.65;52.78
51083;BME280;37131;42.694;23.350;2023-04-25T12:19:36;94468.31;;;17.12;51.64
51083;BME280;37131;42.694;23.350;2023-04-25T12:22:03;94501.13;;;17.77;53.05
51083;BME280;37131;42.694;23.350;2023-04-25T12:24:28;94504.34;;;17.74;51.60
51083;BME280;37131;42.694;23.350;2023-04-25T12:27:03;94500.94;;;17.73;54.18
51083;BME280;37131;42.694;23.350;2023-04-25T12:29:30;94505.56;;;17.43;54.54
51083;BME280;37131;42.694;23.350;2023-04-25T12:31:56;94515.41;;;16.70;55.47
51083;BME280;37131;42.694;23.350;2023-04-25T12:34:22;94553.66;;;16.87;53.87
51083;BME280;37131;42.694;23.350;2023-04-25T12:36:49;94573.63;;;16.34;61.10
51083;BME280;37131;42.694;23.350;2023-04-25T12:39:21;94586.13;;;15.29;70.42
51083;BME280;37131;42.694;23.350;2023-04-25T12:41:48;94585.81;;;14.18;81.04
51083;BME280;37131;42.694;23.350;2023-04-25T12:44:14;94584.22;;;13.76;83.17